createdAt,value
2018-01-13T00:03:45.703Z,71.65
2018-01-13T00:06:14.887Z,70.30
2018-01-13T00:08:48.878Z,69.90
2018-01-13T00:11:21.570Z,73.62
2018-01-13T00:24:38.487Z,69.72
2018-01-13T00:27:20.551Z,64.53
2018-01-13T00:58:39.558Z,107.30
2018-01-13T01:01:13.542Z,106.05
2018-01-13T01:08:59.238Z,109.97
2018-01-13T01:11:31.578Z,123.20
2018-01-13T01:14:01.038Z,127.45
2018-01-13T01:16:33.294Z,124.65
2018-01-13T01:19:03.318Z,127.12
2018-01-13T01:21:34.082Z,125.43
2018-01-13T01:24:04.394Z,116.95
2018-01-13T01:26:42.206Z,127.50
2018-01-13T01:29:16.946Z,116.78
2018-01-13T01:32:06.518Z,107.90
2018-01-13T01:34:35.302Z,126.80
2018-01-13T01:37:05.822Z,104.43
2018-01-13T01:39:35.694Z,135.95
2018-01-13T01:42:04.870Z,108.50
2018-01-13T01:44:35.002Z,112.10
2018-01-13T01:47:13.273Z,124.05
2018-01-13T01:49:41.518Z,118.07
2018-01-13T01:54:53.181Z,102.57
2018-01-13T02:02:48.146Z,101.00
2018-01-13T02:10:31.010Z,112.45
2018-01-13T02:13:00.086Z,136.32
2018-01-13T02:18:12.438Z,115.28
2018-01-13T02:31:10.510Z,102.47
2018-01-13T02:39:03.651Z,107.30
2018-01-13T02:44:09.574Z,93.93
2018-01-13T02:46:56.629Z,89.55
2018-01-13T02:57:08.658Z,98.62
2018-01-13T03:02:25.601Z,100.35
2018-01-13T03:04:58.637Z,99.82
2018-01-13T03:07:27.629Z,93.22
2018-01-13T03:10:05.861Z,105.57
2018-01-13T03:12:35.357Z,92.97
2018-01-13T03:15:16.481Z,105.30
2018-01-13T03:17:46.241Z,97.88
2018-01-13T03:20:21.401Z,101.22
2018-01-13T03:22:54.326Z,96.72
2018-01-13T03:25:23.389Z,96.75
2018-01-13T03:28:00.465Z,109.12
2018-01-13T03:30:29.982Z,105.20
2018-01-13T03:32:59.322Z,109.80
2018-01-13T03:35:36.541Z,99.43
2018-01-13T03:38:11.253Z,105.32
2018-01-13T03:40:41.586Z,105.20
2018-01-13T03:43:10.413Z,109.32
2018-01-13T03:45:42.641Z,116.80
2018-01-13T03:48:12.729Z,109.57
2018-01-13T03:50:47.149Z,109.75
2018-01-13T03:53:16.200Z,112.00
2018-01-13T03:55:45.165Z,97.62
2018-01-13T03:58:14.978Z,108.35
2018-01-13T04:01:04.193Z,108.90
2018-01-13T04:03:33.433Z,102.25
2018-01-13T04:06:06.621Z,107.30
2018-01-13T04:08:39.637Z,100.53
2018-01-13T04:11:14.205Z,97.35
2018-01-13T04:13:42.617Z,95.78
2018-01-13T04:16:12.241Z,89.78
2018-01-13T04:18:40.541Z,94.07
2018-01-13T04:21:11.765Z,102.20
2018-01-13T04:23:44.598Z,91.03
2018-01-13T04:26:14.637Z,87.32
2018-01-13T04:28:53.033Z,93.75
2018-01-13T04:34:16.817Z,81.70
2018-01-13T04:36:45.849Z,80.78
2018-01-13T04:39:15.849Z,81.82
2018-01-13T04:41:54.101Z,69.25
2018-01-13T04:44:22.341Z,79.32
2018-01-13T04:46:58.881Z,70.97
2018-01-13T04:49:28.917Z,75.87
2018-01-13T04:51:59.029Z,67.30
2018-01-13T04:54:28.093Z,58.28
2018-01-13T04:56:58.312Z,61.08
2018-01-13T04:59:37.436Z,59.30
2018-01-13T05:02:08.280Z,55.03
2018-01-13T05:07:33.033Z,58.87
2018-01-13T05:10:06.613Z,53.28
2018-01-13T05:12:35.612Z,55.17
2018-01-13T05:15:08.196Z,46.47
2018-01-13T05:17:43.636Z,51.83
2018-01-13T05:20:24.748Z,45.08
2018-01-13T05:23:02.788Z,58.28
2018-01-13T05:25:30.836Z,47.97
2018-01-13T05:28:00.616Z,46.15
2018-01-13T05:30:28.652Z,51.92
2018-01-13T05:32:59.144Z,47.62
2018-01-13T05:35:28.300Z,49.85
2018-01-13T05:38:00.669Z,49.28
2018-01-13T05:40:34.988Z,46.35
2018-01-13T05:43:06.236Z,40.75
2018-01-13T05:45:49.424Z,36.78
2018-01-13T05:48:17.684Z,37.03
2018-01-13T05:50:46.940Z,40.88
2018-01-13T05:53:15.924Z,35.47
2018-01-13T05:55:51.580Z,36.13
2018-01-13T05:58:34.216Z,30.40
2018-01-13T06:01:04.924Z,33.33
2018-01-13T06:03:32.952Z,33.42
2018-01-13T06:06:02.964Z,31.30
2018-01-13T06:08:50.156Z,32.53
2018-01-13T06:11:21.744Z,35.45
2018-01-13T06:13:51.801Z,32.25
2018-01-13T06:16:21.788Z,29.33
2018-01-13T06:18:54.364Z,36.45
2018-01-13T06:21:22.384Z,29.20
2018-01-13T06:23:55.056Z,31.80
2018-01-13T06:26:23.084Z,36.47
2018-01-13T06:28:53.812Z,28.77
2018-01-13T06:31:21.848Z,31.80
2018-01-13T06:33:53.944Z,33.22
2018-01-13T06:36:22.028Z,29.48
2018-01-13T06:38:59.232Z,30.37
2018-01-13T06:41:34.824Z,24.35
2018-01-13T06:44:17.488Z,31.37
2018-01-13T06:46:48.224Z,35.20
2018-01-13T06:49:16.256Z,30.75
2018-01-13T06:51:56.800Z,33.35
2018-01-13T06:54:29.896Z,34.67
2018-01-13T06:57:04.236Z,33.28
2018-01-13T06:59:35.368Z,32.40
2018-01-13T07:02:04.364Z,32.42
2018-01-13T07:04:36.604Z,26.45
2018-01-13T07:10:02.880Z,31.83
2018-01-13T07:12:35.872Z,31.45
2018-01-13T07:15:05.952Z,33.78
2018-01-13T07:17:35.896Z,33.95
2018-01-13T07:20:14.960Z,36.33
2018-01-13T07:22:50.444Z,35.10
2018-01-13T07:25:21.404Z,39.25
2018-01-13T07:27:54.296Z,34.40
2018-01-13T07:30:24.307Z,31.77
2018-01-13T07:32:52.340Z,34.42
2018-01-13T07:35:26.700Z,33.95
2018-01-13T07:38:01.232Z,37.50
2018-01-13T07:40:36.764Z,38.90
2018-01-13T07:43:13.027Z,31.87
2018-01-13T07:45:42.040Z,35.25
2018-01-13T07:50:48.876Z,32.00
2018-01-13T07:53:34.835Z,32.20
2018-01-13T07:56:10.020Z,33.95
2018-01-13T07:58:50.788Z,37.20
2018-01-13T08:01:29.696Z,38.30
2018-01-13T08:03:59.692Z,36.72
2018-01-13T08:06:28.632Z,38.10
2018-01-13T08:08:56.685Z,45.08
2018-01-13T08:11:35.392Z,35.67
2018-01-13T08:14:09.184Z,54.85
2018-01-13T08:16:38.129Z,44.80
2018-01-13T08:19:07.120Z,45.78
2018-01-13T08:21:36.160Z,36.38
2018-01-13T08:24:28.607Z,37.65
2018-01-13T08:29:55.004Z,40.38
2018-01-13T08:32:26.791Z,42.78
2018-01-13T08:34:56.780Z,40.85
2018-01-13T08:40:25.653Z,43.78
2018-01-13T08:42:54.733Z,42.08
2018-01-13T08:45:24.699Z,40.67
2018-01-13T08:51:02.751Z,39.22
2018-01-13T08:53:31.567Z,35.50
2018-01-13T08:56:03.979Z,37.70
2018-01-13T08:58:32.003Z,36.92
2018-01-13T09:03:53.883Z,42.20
2018-01-13T09:06:26.059Z,35.67
2018-01-13T09:08:54.111Z,36.15
2018-01-13T09:11:29.339Z,33.85
2018-01-13T09:13:59.293Z,30.10
2018-01-13T09:16:27.312Z,35.22
2018-01-13T09:19:17.083Z,32.53
2018-01-13T09:24:43.371Z,32.05
2018-01-13T09:27:17.183Z,36.13
2018-01-13T09:30:01.585Z,30.48
2018-01-13T09:32:29.612Z,31.50
2018-01-13T09:35:16.880Z,35.20
2018-01-13T09:37:46.839Z,34.28
2018-01-13T09:40:24.948Z,31.58
2018-01-13T09:43:23.908Z,33.17
2018-01-13T09:46:12.863Z,31.70
2018-01-13T09:48:58.223Z,31.25
2018-01-13T09:51:37.175Z,31.77
2018-01-13T09:54:05.203Z,30.10
2018-01-13T09:56:39.599Z,28.48
2018-01-13T09:59:07.624Z,29.95
2018-01-13T10:01:37.579Z,25.05
2018-01-13T10:04:11.847Z,23.98
2018-01-13T10:06:46.704Z,24.75
2018-01-13T10:09:33.706Z,26.42
2018-01-13T10:12:01.723Z,21.85
2018-01-13T10:14:34.211Z,24.27
2018-01-13T10:17:10.720Z,21.10
2018-01-13T10:19:38.755Z,19.90
2018-01-13T10:22:06.771Z,22.10
2018-01-13T10:27:28.667Z,20.10
2018-01-13T10:30:02.179Z,21.52
2018-01-13T10:35:36.131Z,22.50
2018-01-13T10:38:16.083Z,21.58
2018-01-13T10:40:55.719Z,23.08
2018-01-13T10:43:23.742Z,21.65
2018-01-13T10:45:56.951Z,26.35
2018-01-13T10:48:35.407Z,21.65
2018-01-13T10:51:03.467Z,20.00
2018-01-13T10:53:33.411Z,22.87
2018-01-13T10:56:11.999Z,19.02
2018-01-13T10:58:50.047Z,19.73
2018-01-13T11:01:24.506Z,18.87
2018-01-13T11:03:52.531Z,19.80
2018-01-13T11:06:20.563Z,18.12
2018-01-13T11:08:48.607Z,21.15
2018-01-13T11:11:17.559Z,16.73
2018-01-13T11:13:47.495Z,16.00
2018-01-13T11:16:22.659Z,21.35
2018-01-13T11:18:50.695Z,20.17
2018-01-13T11:21:19.659Z,23.08
2018-01-13T11:23:47.683Z,18.45
2018-01-13T11:26:18.915Z,21.30
2018-01-13T11:28:53.495Z,19.12
2018-01-13T11:31:21.551Z,24.85
2018-01-13T11:33:49.587Z,20.42
2018-01-13T11:36:19.267Z,18.37
2018-01-13T11:38:57.035Z,21.05
2018-01-13T11:41:25.079Z,21.98
2018-01-13T11:43:53.119Z,23.02
2018-01-13T11:46:21.927Z,19.62
2018-01-13T11:48:51.887Z,19.42
2018-01-13T11:51:24.366Z,25.35
2018-01-13T11:56:47.239Z,22.98
2018-01-13T11:59:34.147Z,18.08
2018-01-13T12:02:03.087Z,20.52
2018-01-13T12:04:34.646Z,19.33
2018-01-13T12:07:08.395Z,20.08
2018-01-13T12:09:38.691Z,17.58
2018-01-13T12:12:07.059Z,18.25
2018-01-13T12:14:41.718Z,17.40
2018-01-13T12:17:10.326Z,20.05
2018-01-13T12:19:40.094Z,18.42
2018-01-13T12:22:10.126Z,26.65
2018-01-13T12:24:39.758Z,17.50
2018-01-13T12:27:12.647Z,15.75
2018-01-13T12:29:41.575Z,23.05
2018-01-13T12:32:13.258Z,20.20
2018-01-13T12:34:47.770Z,19.60
2018-01-13T12:37:16.854Z,20.58
2018-01-13T12:39:44.982Z,20.90
2018-01-13T12:42:16.379Z,18.52
2018-01-13T12:44:45.419Z,18.67
2018-01-13T12:47:13.690Z,13.80
2018-01-13T12:49:52.202Z,19.60
2018-01-13T12:52:21.226Z,17.37
2018-01-13T12:54:53.094Z,17.92
2018-01-13T12:57:23.316Z,17.10
2018-01-13T12:59:56.138Z,18.15
2018-01-13T13:02:24.270Z,18.23
2018-01-13T13:04:55.046Z,18.37
2018-01-13T13:07:23.115Z,20.15
2018-01-13T13:09:58.622Z,15.52
2018-01-13T13:12:33.582Z,17.90
2018-01-13T13:15:01.919Z,21.50
2018-01-13T13:17:30.013Z,16.65
2018-01-13T13:20:06.466Z,20.02
2018-01-13T13:22:36.398Z,20.08
2018-01-13T13:25:08.342Z,21.20
2018-01-13T13:27:47.674Z,21.48
2018-01-13T13:30:19.014Z,20.25
2018-01-13T13:32:47.981Z,19.67
2018-01-13T13:35:16.910Z,19.17
2018-01-13T13:37:49.258Z,25.67
2018-01-13T13:40:18.978Z,21.75
2018-01-13T13:42:47.922Z,24.70
2018-01-13T13:45:16.858Z,25.33
2018-01-13T13:47:44.890Z,30.70
2018-01-13T13:50:19.530Z,23.27
2018-01-13T13:52:49.314Z,20.50
2018-01-13T13:55:29.766Z,20.37
2018-01-13T13:57:57.798Z,20.83
2018-01-13T14:00:29.725Z,20.85
2018-01-13T14:03:01.398Z,19.75
2018-01-13T14:05:35.274Z,20.83
2018-01-13T14:08:03.326Z,19.83
2018-01-13T14:10:38.014Z,17.92
2018-01-13T14:13:12.682Z,23.92
2018-01-13T14:15:41.730Z,24.92
2018-01-13T14:18:10.666Z,19.80
2018-01-13T14:20:38.697Z,26.23
2018-01-13T14:23:06.722Z,23.55
2018-01-13T14:25:34.754Z,21.20
2018-01-13T14:28:02.786Z,29.92
2018-01-13T14:30:37.298Z,18.10
2018-01-13T14:33:06.106Z,25.17
2018-01-13T14:35:37.958Z,19.98
2018-01-13T14:38:06.742Z,29.02
2018-01-13T14:40:38.494Z,16.25
2018-01-13T14:43:15.750Z,20.62
2018-01-13T14:45:50.550Z,18.15
2018-01-13T14:48:20.510Z,22.15
2018-01-13T14:51:12.849Z,17.45
2018-01-13T14:53:47.345Z,21.55
2018-01-13T14:56:19.326Z,21.48
2018-01-13T14:58:55.133Z,19.15
2018-01-13T15:01:37.730Z,21.52
2018-01-13T15:04:11.185Z,22.45
2018-01-13T15:06:39.197Z,25.85
2018-01-13T15:09:21.506Z,25.92
2018-01-13T15:11:53.018Z,23.85
2018-01-13T15:14:23.034Z,19.40
2018-01-13T15:16:51.049Z,25.42
2018-01-13T15:19:26.533Z,25.23
2018-01-13T15:21:54.550Z,24.58
2018-01-13T15:24:24.538Z,23.12
2018-01-13T15:26:58.494Z,22.90
2018-01-13T15:29:26.505Z,23.27
2018-01-13T15:31:55.498Z,24.75
2018-01-13T15:34:27.153Z,21.35
2018-01-13T15:37:05.545Z,22.83
2018-01-13T15:39:43.389Z,29.33
2018-01-13T15:42:13.361Z,27.52
2018-01-13T15:44:48.305Z,25.27
2018-01-13T15:47:19.297Z,26.15
2018-01-13T15:49:52.135Z,24.00
2018-01-13T15:52:21.138Z,21.45
2018-01-13T15:54:55.861Z,21.83
2018-01-13T15:57:30.562Z,27.67
2018-01-13T16:00:01.438Z,30.08
2018-01-13T16:02:34.461Z,31.37
2018-01-13T16:05:09.061Z,28.77
2018-01-13T16:07:37.085Z,34.67
2018-01-13T16:10:06.087Z,36.95
2018-01-13T16:12:35.025Z,25.05
2018-01-13T16:15:03.041Z,24.65
2018-01-13T16:17:31.077Z,27.45
2018-01-13T16:19:59.109Z,23.02
2018-01-13T16:22:27.957Z,27.92
2018-01-13T16:24:55.966Z,22.05
2018-01-13T16:27:24.779Z,26.70
2018-01-13T16:30:00.095Z,24.77
2018-01-13T16:32:30.819Z,24.42
2018-01-13T16:34:59.817Z,25.12
2018-01-13T16:37:38.921Z,26.37
2018-01-13T16:40:08.756Z,25.40
2018-01-13T16:42:38.533Z,28.40
2018-01-13T16:45:09.697Z,35.25
2018-01-13T16:47:37.750Z,37.17
2018-01-13T16:50:05.789Z,25.58
2018-01-13T16:52:34.824Z,31.08
2018-01-13T16:55:03.857Z,28.05
2018-01-13T16:57:38.605Z,24.95
2018-01-13T17:00:11.893Z,22.75
2018-01-13T17:02:39.944Z,23.12
2018-01-13T17:05:16.396Z,30.83
2018-01-13T17:07:49.644Z,32.80
2018-01-13T17:10:24.440Z,26.40
2018-01-13T17:13:05.817Z,27.00
2018-01-13T17:15:38.205Z,24.37
2018-01-13T17:18:09.913Z,32.30
2018-01-13T17:20:38.925Z,30.17
2018-01-13T17:23:08.729Z,30.37
2018-01-13T17:25:39.501Z,28.58
2018-01-13T17:28:10.177Z,29.23
2018-01-13T17:30:39.213Z,25.58
2018-01-13T17:33:11.769Z,30.40
2018-01-13T17:35:39.804Z,23.27
2018-01-13T17:38:11.384Z,30.17
2018-01-13T17:40:40.232Z,21.55
2018-01-13T17:43:08.252Z,29.73
2018-01-13T17:45:37.968Z,25.27
2018-01-13T17:48:09.385Z,28.65
2018-01-13T17:50:39.425Z,29.98
2018-01-13T17:53:08.236Z,34.08
2018-01-13T17:55:37.188Z,28.38
2018-01-13T17:58:08.664Z,35.80
2018-01-13T18:00:36.729Z,24.75
2018-01-13T18:03:12.900Z,23.60
2018-01-13T18:05:42.240Z,29.80
2018-01-13T18:08:15.221Z,27.70
2018-01-13T18:10:45.009Z,23.80
2018-01-13T18:13:31.024Z,22.17
2018-01-13T18:16:03.465Z,32.70
2018-01-13T18:18:37.828Z,27.55
2018-01-13T18:21:06.864Z,29.70
2018-01-13T18:23:39.208Z,27.73
2018-01-13T18:26:24.477Z,31.20
2018-01-13T18:28:55.564Z,33.22
2018-01-13T18:31:30.896Z,32.05
2018-01-13T18:34:02.252Z,27.25
2018-01-13T18:36:32.240Z,32.88
2018-01-13T18:39:01.968Z,32.30
2018-01-13T18:41:40.005Z,29.15
2018-01-13T18:44:13.858Z,32.83
2018-01-13T18:49:36.944Z,39.35
2018-01-13T18:52:17.316Z,34.28
2018-01-13T18:54:50.040Z,34.88
2018-01-13T18:57:19.788Z,34.17
2018-01-13T18:59:57.096Z,34.22
2018-01-13T19:02:32.052Z,29.85
2018-01-13T19:08:01.992Z,39.72
2018-01-13T19:10:30.116Z,34.97
2018-01-13T19:13:00.080Z,36.55
2018-01-13T19:15:33.931Z,35.30
2018-01-13T19:18:02.932Z,41.40
2018-01-13T19:20:32.708Z,37.92
2018-01-13T19:23:01.704Z,40.00
2018-01-13T19:25:29.728Z,37.30
2018-01-13T19:28:00.724Z,44.15
2018-01-13T19:30:28.744Z,40.28
2018-01-13T19:32:57.772Z,37.08
2018-01-13T19:35:26.323Z,46.13
2018-01-13T19:37:57.984Z,38.05
2018-01-13T19:40:39.156Z,38.13
2018-01-13T19:43:20.004Z,36.17
2018-01-13T19:46:00.831Z,44.60
2018-01-13T19:48:34.172Z,42.78
2018-01-13T19:51:14.351Z,40.45
2018-01-13T19:53:47.396Z,41.55
2018-01-13T19:56:15.408Z,46.47
2018-01-13T19:58:45.412Z,46.97
2018-01-13T20:01:16.732Z,42.75
2018-01-13T20:03:45.708Z,42.38
2018-01-13T20:06:17.148Z,37.67
2018-01-13T20:08:54.471Z,45.85
2018-01-13T20:11:26.519Z,44.38
2018-01-13T20:14:00.548Z,48.70
2018-01-13T20:16:32.172Z,45.45
2018-01-13T20:19:03.968Z,42.25
2018-01-13T20:21:53.447Z,47.58
2018-01-13T20:24:23.457Z,47.15
2018-01-13T20:26:53.459Z,43.25
2018-01-13T20:29:31.609Z,46.65
2018-01-13T20:32:10.751Z,47.28
2018-01-13T20:34:38.855Z,53.92
2018-01-13T20:37:12.219Z,48.47
2018-01-13T20:39:47.735Z,53.80
2018-01-13T20:42:15.819Z,51.40
2018-01-13T20:44:44.576Z,49.13
2018-01-13T20:47:12.711Z,54.65
2018-01-13T20:49:42.967Z,52.30
2018-01-13T20:52:23.483Z,47.33
2018-01-13T20:54:51.879Z,53.72
2018-01-13T20:57:19.891Z,44.83
2018-01-13T20:59:57.151Z,43.53
2018-01-13T21:02:25.171Z,47.08
2018-01-13T21:05:00.927Z,47.15
2018-01-13T21:07:37.342Z,49.67
2018-01-13T21:10:10.431Z,49.33
2018-01-13T21:12:46.847Z,43.40
2018-01-13T21:15:14.891Z,45.95
2018-01-13T21:17:45.279Z,42.53
2018-01-13T21:20:14.235Z,46.10
2018-01-13T21:22:44.318Z,45.60
2018-01-13T21:25:17.491Z,43.92
2018-01-13T21:27:51.719Z,49.25
2018-01-13T21:30:22.903Z,44.80
2018-01-13T21:32:53.076Z,40.90
2018-01-13T21:35:22.067Z,59.80
2018-01-13T21:37:51.959Z,37.50
2018-01-13T21:40:25.111Z,48.08
2018-01-13T21:42:54.187Z,44.10
2018-01-13T21:45:23.275Z,42.40
2018-01-13T21:47:51.343Z,38.90
2018-01-13T21:50:23.631Z,42.45
2018-01-13T21:52:52.003Z,41.28
2018-01-13T21:55:27.812Z,40.12
2018-01-13T21:57:56.633Z,45.22
2018-01-13T22:00:35.311Z,39.63
2018-01-13T22:03:14.599Z,42.83
2018-01-13T22:05:51.315Z,40.45
2018-01-13T22:08:20.267Z,46.53
2018-01-13T22:10:57.431Z,47.10
2018-01-13T22:13:28.423Z,43.33
2018-01-13T22:16:01.047Z,45.03
2018-01-13T22:18:41.275Z,42.97
2018-01-13T22:21:12.159Z,36.13
2018-01-13T22:23:59.919Z,35.47
2018-01-13T22:26:34.467Z,46.33
2018-01-13T22:29:10.395Z,43.58
2018-01-13T22:31:57.920Z,44.33
2018-01-13T22:34:33.323Z,51.10
2018-01-13T22:37:13.891Z,43.70
2018-01-13T22:39:48.843Z,43.90
2018-01-13T22:42:22.584Z,37.97
2018-01-13T22:44:58.019Z,35.15
2018-01-13T22:47:28.603Z,41.33
2018-01-13T22:49:59.663Z,38.42
2018-01-13T22:52:31.423Z,42.60
2018-01-13T22:55:03.171Z,44.40
2018-01-13T22:57:35.799Z,38.45
2018-01-13T23:00:15.323Z,38.28
2018-01-13T23:02:44.219Z,39.65
2018-01-13T23:05:13.607Z,34.83
2018-01-13T23:07:42.483Z,38.05
2018-01-13T23:10:12.615Z,45.28
2018-01-13T23:12:47.912Z,36.67
2018-01-13T23:15:17.923Z,42.62
2018-01-13T23:17:52.867Z,45.03
2018-01-13T23:20:28.263Z,40.25
2018-01-13T23:22:57.134Z,40.35
2018-01-13T23:25:27.947Z,40.97
2018-01-13T23:27:59.047Z,41.40
2018-01-13T23:30:31.867Z,41.50
2018-01-13T23:33:03.663Z,40.15
2018-01-13T23:35:40.835Z,43.13
2018-01-13T23:38:21.327Z,39.08
2018-01-13T23:40:50.324Z,44.30
2018-01-13T23:43:18.678Z,37.20
2018-01-13T23:45:57.238Z,37.92
2018-01-13T23:48:27.230Z,38.00
2018-01-13T23:51:01.227Z,42.95
2018-01-13T23:53:35.894Z,41.90
2018-01-13T23:56:06.990Z,38.53
2018-01-13T23:58:40.954Z,41.22
